x

Norfolk, Va (44059) Weather Station

9:50pm - Fri 28th Nov 2014 All times are EST. -5 hours from GMT.

  • Wind
    2mph
  • Air Temp 36°f
  • Sea Pressure 1025.6mb
  • Norfolk, Va
  • Norfolk, Va

More Historic Weather Station data

Upgrade to MSW Pro to gain access to the past 30 days of data for over 8000 Wavebouys and Weather Stations around the globe.

Join Pro

Comparision Forecast

View Surf forecast
   
Fri 11/28 9:50pm 2
mph
1025.6mb - 36f
9:40pm 2 4 mph 1025.6mb - 37f
9:30pm 2 4 mph 1025.5mb - 36f
9:20pm 2 4 mph 1025.6mb - 36f
9:10pm 2 4 mph 1025.6mb - 36f
9:00pm 4 7 mph 1025.7mb 50f 37f
8:50pm 4 7 mph 1025.5mb - 37f
8:40pm 4 7 mph 1025.5mb - 37f
8:30pm 4 7 mph 1025.4mb - 37f
8:20pm 4 7 mph 1025.4mb - 37f
8:10pm 4
mph
1025.3mb - 37f
8:00pm 4 7 mph 1025.4mb 50f 37f
7:50pm 4 7 mph 1025.4mb - 38f
7:40pm 4 7 mph 1025.3mb - 38f
7:30pm 4 7 mph 1025.1mb - 39f
7:20pm 2 4 mph 1025.1mb - 39f
7:10pm 2 4 mph 1025mb - 39f
7:00pm 2 4 mph 1025.2mb 51f 39f
6:50pm 2 4 mph 1025.2mb - 40f
6:40pm 2 4 mph 1025.2mb - 40f
6:30pm 2 4 mph 1025.1mb - 40f
6:20pm 4 7 mph 1025.1mb - 40f
6:10pm 4 9 mph 1025.1mb - 40f
6:00pm 4 7 mph 1025mb 50f 40f
5:50pm 4 9 mph 1024.9mb - 40f
5:40pm 7 9 mph 1025mb - 41f
5:30pm 7 9 mph 1025mb - 41f
5:20pm 7 9 mph 1025mb - 41f
5:10pm 7 9 mph 1025mb - 41f
5:00pm 7 9 mph 1025mb 50f 41f
4:50pm 7 11 mph 1025mb - 41f
4:40pm 7 11 mph 1024.8mb - 41f
4:30pm 7 11 mph 1024.7mb - 41f
4:20pm 7 11 mph 1024.5mb - 41f
4:10pm 7 11 mph 1024.4mb - 42f
4:00pm 9 11 mph 1024.4mb 50f 42f
3:50pm 9 11 mph 1024.3mb - 42f
3:40pm 9 13 mph 1024.2mb - 42f
3:30pm 9 11 mph 1024.2mb - 42f
3:20pm 9 16 mph 1024.2mb - 42f
3:10pm 9 13 mph 1024.1mb - 42f
3:00pm 9 13 mph 1024mb 50f 41f
2:50pm 9 13 mph 1024.1mb - 41f
2:40pm 11 16 mph 1024mb - 41f
2:30pm 11 18 mph 1023.9mb - 41f
2:20pm 9 16 mph 1023.8mb - 41f
2:10pm 9 18 mph 1023.8mb - 41f
2:00pm 11 16 mph 1023.9mb 50f 41f
1:50pm 9 13 mph 1024mb - 41f
1:40pm 11 16 mph 1024mb - 40f
1:30pm 11 16 mph 1024mb - 40f
1:20pm 9 13 mph 1023.9mb - 40f
1:10pm 11 18 mph 1024mb - 40f
1:00pm 9 16 mph 1024mb 50f 40f
12:50pm 9 13 mph 1024mb - 40f
12:40pm 11 16 mph 1024.1mb - 40f
12:30pm 9 13 mph 1024.2mb - 40f
12:20pm 11 18 mph 1024.4mb - 40f
12:10pm 11 18 mph 1024.5mb - 39f
12:00pm 11 18 mph 1024.7mb 50f 39f
11:50am 11 16 mph 1024.8mb - 39f
11:40am 13 20 mph 1025.1mb - 39f
11:30am 16 22 mph 1025.2mb - 39f
11:20am 18 22 mph 1025.4mb - 39f
11:10am 13 20 mph 1025.5mb - 39f
11:00am 13 18 mph 1025.7mb 50f 39f
10:50am 18 25 mph 1025.8mb - 39f
10:40am 16 22 mph 1025.8mb - 39f
10:30am 13 20 mph 1025.8mb - 39f
10:20am 16 22 mph 1025.8mb - 39f
10:10am 16 22 mph 1025.8mb - 38f
10:00am 16 22 mph 1025.8mb 50f 38f
9:50am 16 22 mph 1025.8mb - 38f
9:40am 16 20 mph 1025.8mb - 38f
9:30am 18 22 mph 1025.8mb - 38f
9:20am 18 22 mph 1025.8mb - 38f
9:10am 18 22 mph 1025.7mb - 38f
9:00am 16 22 mph 1025.7mb 50f 38f
8:50am 16 20 mph 1025.7mb - 38f
8:40am 16 20 mph 1025.7mb - 38f
8:30am 16 22 mph 1025.7mb - 38f
8:20am 16 20 mph 1025.5mb - 38f
8:10am 16 20 mph 1025.3mb - 38f
8:00am 16 20 mph 1025.1mb 50f 38f
7:50am 13 20 mph 1024.9mb - 38f
7:40am 13 20 mph 1024.8mb - 37f
7:30am 13 16 mph 1024.6mb - 37f
7:20am 11 16 mph 1024.4mb - 37f
7:10am 11 16 mph 1024.3mb - 37f
7:00am 13 16 mph 1024.3mb 51f 37f
6:50am 11 16 mph 1024.2mb - 37f
6:40am 11 18 mph 1024.1mb - 37f
6:30am 11 16 mph 1024.1mb - 37f
6:20am 11 18 mph 1024mb - 37f
6:10am 13 22 mph 1023.9mb - 37f
6:00am 16 20 mph 1023.8mb 51f 37f
5:50am 16 25 mph 1023.7mb - 37f
5:40am 16 20 mph 1023.6mb - 37f
5:30am 16 22 mph 1023.4mb - 37f
5:20am 18 27 mph 1023.2mb - 37f
5:10am 18 25 mph 1023mb - 37f
5:00am 16 22 mph 1023mb 51f 37f
4:50am 18 25 mph 1022.9mb - 37f
4:40am 13 20 mph 1022.9mb - 37f
4:30am 18 25 mph 1022.6mb - 38f
4:20am 18 25 mph 1022.5mb - 38f
4:10am 16 22 mph 1022.4mb - 38f
4:00am 18 22 mph 1022.3mb 50f 39f
3:50am 16 20 mph 1022.3mb - 39f
3:40am 16 22 mph 1022.1mb - 39f
3:30am 13 22 mph 1022.1mb - 39f
3:20am 9 16 mph 1021.7mb - 38f
3:10am 9 13 mph 1021.7mb - 38f
3:00am 9 13 mph 1021.7mb 50f 38f
2:50am 9 13 mph 1021.6mb - 40f
2:40am 11 18 mph 1021.5mb - 40f
2:30am 13 20 mph 1021.3mb - 41f
2:20am 11 16 mph 1021.1mb - 40f
2:10am 11 16 mph 1021.1mb - 40f
2:00am 7 11 mph 1021mb 50f 40f
1:50am 9 13 mph 1021mb - 40f
1:40am 13 20 mph 1021mb - 41f
1:30am 16 20 mph 1021mb - 41f
1:20am 13 20 mph 1020.9mb - 41f
1:10am 16 20 mph 1020.9mb - 41f
1:00am 13 20 mph 1020.9mb 50f 41f
12:50am 13 18 mph 1020.9mb - 41f
12:40am 13 18 mph 1020.9mb - 41f
12:30am 13 16 mph 1020.9mb - 41f
12:20am 13 20 mph 1021mb - 41f
12:10am 13 18 mph 1021.1mb - 42f
12:00am 16 22 mph 1021.2mb 50f 42f
Thu 11/27 11:50pm 16 22 mph 1021.1mb - 42f
11:40pm 13 18 mph 1021mb - 42f
11:30pm 16 18 mph 1020.9mb - 42f
11:20pm 13 18 mph 1021mb - 42f
11:10pm 13 20 mph 1021mb - 42f
11:00pm 13 18 mph 1021.1mb 50f 42f
10:50pm 13 20 mph 1021mb - 42f
10:40pm 13 18 mph 1021.1mb - 42f
10:30pm 11 18 mph 1021mb - 42f
10:20pm 11 18 mph 1020.9mb - 42f
10:10pm 11 18 mph 1020.9mb - 42f
10:00pm 13 18 mph 1020.7mb 51f 42f
9:50pm 13 20 mph 1020.6mb - 42f
9:40pm 13 20 mph 1020.5mb - 42f
9:30pm 13 18 mph 1020.4mb - 42f
9:20pm 16 20 mph 1020.4mb - 42f
9:10pm 9 18 mph 1020.3mb - 42f
9:00pm 11 13 mph 1020.1mb 51f 43f
8:50pm 11 16 mph 1020mb - 43f
8:40pm 9 13 mph 1020mb - 43f
8:30pm 7 11 mph 1020mb - 43f
8:20pm 9 11 mph 1019.8mb - 42f
8:10pm 7 11 mph 1019.7mb - 42f
8:00pm 7 11 mph 1019.5mb 51f 42f
7:50pm 7 11 mph 1019.4mb - 42f
7:40pm 9 11 mph 1019.3mb - 42f
7:30pm 9 13 mph 1019.3mb - 42f
7:20pm 7 11 mph 1019.1mb - 42f
7:10pm 9 11 mph 1019.1mb - 42f
7:00pm 9 11 mph 1018.9mb 51f 42f
6:50pm 9 11 mph 1018.9mb - 42f
6:40pm 9 13 mph 1018.7mb - 42f
6:30pm 9 11 mph 1018.6mb - 42f
6:20pm 9 11 mph 1018.5mb - 42f
6:10pm 9 11 mph 1018.4mb - 42f
6:00pm 9 16 mph 1018.3mb 51f 42f
5:50pm 13 18 mph 1018.2mb - 42f
5:40pm 13 20 mph 1017.9mb - 42f
5:30pm 13 18 mph 1017.6mb - 42f
5:20pm 11 13 mph 1017.4mb - 42f
5:10pm 13 20 mph 1017.3mb - 42f
5:00pm 13 25 mph 1017mb 51f 43f
4:50pm 11 18 mph 1016.6mb - 44f
4:40pm 9 11 mph 1016.5mb - 44f
4:30pm 9 13 mph 1016.4mb - 44f
4:20pm 9 13 mph 1016.3mb - 44f
4:10pm 7 11 mph 1016.3mb - 44f
4:00pm 7 11 mph 1016.1mb 51f 44f
3:50pm 7 9 mph 1016mb - 43f
3:40pm 7 9 mph 1016mb - 43f
3:30pm 7 9 mph 1015.9mb - 43f
3:20pm 4 7 mph 1015.8mb - 43f
3:10pm 4 9 mph 1015.7mb - 43f
3:00pm 4 7 mph 1015.7mb 51f 42f
2:50pm 4 9 mph 1015.7mb - 42f
2:40pm 4 7 mph 1015.6mb - 42f
2:30pm 4 9 mph 1015.5mb - 42f
2:20pm 7 11 mph 1015.5mb - 42f
2:10pm 7 11 mph 1015.5mb - 42f
2:00pm 9 11 mph 1015.6mb 51f 42f
1:50pm 9 16 mph 1015.5mb - 42f
1:40pm 9 13 mph 1015.4mb - 42f
1:30pm 7 13 mph 1015.3mb - 42f
1:20pm 7 13 mph 1015.3mb - 42f
1:10pm 7 11 mph 1015.3mb - 42f
1:00pm 7 9 mph 1015.3mb 51f 42f
12:50pm 7 9 mph 1015.3mb - 42f
12:40pm 7 9 mph 1015.3mb - 42f
12:30pm 7 9 mph 1015.4mb - 42f
12:20pm 7
mph
1015.4mb - 42f
12:10pm 7
mph
1015.4mb - 42f
12:00pm 4 7 mph 1015.6mb 51f 42f
11:50am 4 7 mph 1015.8mb - 42f
11:40am 4
mph
1015.9mb - 42f
11:30am 2 4 mph 1016.1mb - 42f
11:20am 2 4 mph 1016.2mb - 42f
11:10am 2 4 mph 1016.3mb - 41f
11:00am 2 4 mph 1016.5mb 51f 41f
10:50am 4 7 mph 1016.7mb - 42f
10:40am 2 4 mph 1016.7mb - 42f
10:30am 2 4 mph 1016.6mb - 42f
10:20am 2 4 mph 1016.5mb - 41f
10:10am 2 4 mph 1016.6mb - 41f
10:00am 2 4 mph 1016.7mb 51f 41f
9:50am 2 4 mph 1016.7mb - 41f
9:40am 4 7 mph 1016.9mb - 40f
9:30am 4 7 mph 1016.8mb - 40f
9:20am 4 9 mph 1017mb - 40f
9:10am 4 7 mph 1017mb - 40f
9:00am 4 7 mph 1017mb 51f 40f
8:50am 7 9 mph 1017mb - 40f
8:40am 4 7 mph 1016.9mb - 40f
8:30am 4 9 mph 1016.9mb - 40f
8:20am 4 7 mph 1016.8mb - 40f
8:10am 7 9 mph 1016.9mb - 39f
8:00am 7 9 mph 1016.9mb 51f 39f
7:50am 7
mph
1016.8mb - 39f
7:40am 4 7 mph 1016.7mb - 38f
7:30am 4 7 mph 1016.9mb - 38f
7:20am 4 7 mph 1016.9mb - 38f
7:10am 4 9 mph 1016.8mb - 38f
7:00am 4 7 mph 1016.8mb 51f 38f
6:50am 4 7 mph 1016.8mb - 38f
6:40am 4 7 mph 1017mb - 39f
6:30am 4 7 mph 1016.8mb - 39f
6:20am 4 7 mph 1016.7mb - 39f
6:10am 4
mph
1016.7mb - 38f
6:00am 2 4 mph 1016.6mb 51f 38f
5:50am 2 4 mph 1016.6mb - 38f
5:40am 2 4 mph 1016.6mb - 38f
5:30am 4 7 mph 1016.8mb - 38f
5:20am 4 7 mph 1016.8mb - 38f
5:10am 4
mph
1016.8mb - 38f
5:00am 4 7 mph 1016.7mb 50f 38f
4:50am 4 7 mph 1016.8mb - 37f
4:40am 4 7 mph 1016.9mb - 37f
4:30am 4 7 mph 1016.8mb - 37f
4:20am 4 7 mph 1016.7mb - 37f
4:10am 2 4 mph 1016.6mb - 37f
4:00am 4
mph
1016.7mb 49f 37f
3:50am 4 7 mph 1016.6mb - 37f
3:40am 4 7 mph 1016.7mb - 37f
3:30am 4 7 mph 1016.6mb - 37f
3:20am 4 7 mph 1016.5mb - 37f
3:10am 4
mph
1016.4mb - 37f
3:00am 4 7 mph 1016.5mb 50f 37f
2:50am 4 7 mph 1016.6mb - 37f
2:40am 4 7 mph 1016.4mb - 38f
2:30am 4
mph
1016.5mb - 38f
2:20am 4
mph
1016.5mb - 38f
2:10am 2 4 mph 1016.4mb - 38f
2:00am 2 4 mph 1016.6mb 51f 38f
1:50am 4
mph
1016.9mb - 38f
1:40am 2 4 mph 1016.8mb - 38f
1:30am 4
mph
1016.7mb - 39f
1:20am 4 7 mph 1016.6mb - 39f
1:10am 4 7 mph 1016.6mb - 39f
1:00am 4 9 mph 1016.7mb 51f 39f
12:50am 4 9 mph 1016.5mb - 40f
12:40am 4 9 mph 1016mb - 40f
12:30am 7 9 mph 1016mb - 40f
12:20am 7 11 mph 1015.9mb - 40f
12:10am 7 11 mph 1016.3mb - 40f
12:00am 7 13 mph 1016.3mb 51f 40f
Wed 11/26 11:50pm 9 11 mph 1015.7mb - 40f
11:40pm 9 13 mph 1015.7mb - 40f
11:30pm 9 11 mph 1015.9mb - 40f
11:20pm 9 13 mph 1016mb - 40f
11:10pm 11 16 mph 1016.2mb - 40f
11:00pm 11 16 mph 1016.4mb 51f 40f
10:50pm 11 16 mph 1016.4mb - 40f
10:40pm 9 16 mph 1016.3mb - 40f
10:30pm 9 16 mph 1016.3mb - 40f
10:20pm 9 16 mph 1016.2mb - 40f
10:10pm 9 11 mph 1015.9mb - 40f
10:00pm 9 13 mph 1015.6mb 51f 40f
9:50pm 9 13 mph 1015.4mb - 40f
9:40pm 9 13 mph 1015.3mb - 41f
9:30pm 11 16 mph 1015.2mb - 41f
9:20pm 11 20 mph 1014.9mb - 41f
9:10pm 11 16 mph 1014.5mb - 41f
9:00pm 11 16 mph 1014.4mb 51f 41f
8:50pm 11 16 mph 1014.4mb - 41f
8:40pm 11 18 mph 1014.4mb - 41f
8:30pm 11 18 mph 1014.2mb - 42f
8:20pm 11 18 mph 1014mb - 41f
8:10pm 11 18 mph 1013.9mb - 41f
8:00pm 11 18 mph 1013.6mb 52f 41f
7:50pm 11 16 mph 1013.3mb - 41f
7:40pm 11 20 mph 1013.2mb - 41f
7:30pm 11 20 mph 1013.2mb - 41f
7:20pm 13 22 mph 1013.1mb - 41f
7:10pm 13 20 mph 1012.8mb - 41f
7:00pm 13 18 mph 1012.6mb 52f 41f
6:50pm 13 25 mph 1012.5mb - 41f
6:40pm 13 20 mph 1012.2mb - 41f
6:30pm 16 25 mph 1012mb - 41f
6:20pm 16 25 mph 1012mb - 41f
6:10pm 18 27 mph 1012.1mb - 41f
6:00pm 16 25 mph 1011.9mb 52f 41f
5:50pm 18 27 mph 1011.7mb - 41f
5:40pm 18 27 mph 1011.5mb - 41f
5:30pm 16 22 mph 1011.5mb - 41f
5:20pm 18 25 mph 1011.4mb - 42f
5:10pm 16 27 mph 1011.2mb - 42f
5:00pm 16 25 mph 1011.1mb 51f 42f
4:50pm 16 27 mph 1010.8mb - 41f
4:40pm 18 25 mph 1010.8mb - 42f
4:30pm 18 25 mph 1010.8mb - 42f
4:20pm 20 29 mph 1010.7mb - 42f
4:10pm 16 27 mph 1010.5mb - 43f
4:00pm 16 20 mph 1010.2mb 51f 44f
3:50pm 16 22 mph 1010mb - 44f
3:40pm 16 22 mph 1009.6mb - 44f
3:30pm 13 20 mph 1009.2mb - 44f
3:20pm 13 22 mph 1008.8mb - 45f
3:10pm 18 25 mph 1008.1mb - 45f
3:00pm 16 25 mph 1007.6mb 52f 45f
2:50pm 16 25 mph 1006.8mb - 45f
2:40pm 16 22 mph 1006.6mb - 44f
2:30pm 18 25 mph 1006.6mb - 45f
2:20pm 13 22 mph 1007.1mb - 45f
2:10pm 16 22 mph 1006.4mb - 45f
2:00pm 18 29 mph 1005mb 52f 45f
1:50pm 20 29 mph 1006mb - 45f
1:40pm 18 22 mph 1006.9mb - 45f
1:30pm 20 27 mph 1006mb - 45f
1:20pm 18 25 mph 1005.9mb - 44f
1:10pm 20 29 mph 1006.2mb - 44f
1:00pm 20 29 mph 1007mb 52f 45f
12:50pm 20 29 mph 1007mb - 45f
12:40pm 22 34 mph 1006.6mb - 45f
12:30pm 22 36 mph 1006.8mb - 45f
12:20pm 20 31 mph 1007.4mb - 45f
12:10pm 22 34 mph 1007.7mb - 45f
12:00pm 25 36 mph 1007.6mb 52f 45f
11:50am 22 36 mph 1008mb - 45f
11:40am 20 31 mph 1009.2mb - 45f
11:30am 20 34 mph 1010mb - 45f
11:20am 20 31 mph 1009.1mb - 45f
11:10am 22 34 mph 1009.3mb - 46f
11:00am 25 34 mph 1009.1mb 52f 46f
10:50am 20 25 mph 1009.6mb - 46f
10:40am 22 34 mph 1010mb - 46f
10:30am 22 29 mph 1009.2mb - 46f
10:20am 22 31 mph 1009.3mb - 46f
10:10am 18 27 mph 1009.4mb - 46f
10:00am 18 27 mph 1009.7mb 52f 46f
9:50am 18 27 mph 1010.2mb - 46f
9:40am 18 27 mph 1009.9mb - 46f
9:30am 22 29 mph 1009.9mb - 46f
9:20am 20 29 mph 1010.1mb - 46f
9:10am 20 31 mph 1010.1mb - 47f
9:00am 20 27 mph 1010.6mb 52f 47f
8:50am 18 27 mph 1010.6mb - 47f
8:40am 16 22 mph 1011.3mb - 47f
8:30am 11 25 mph 1011.1mb - 47f
8:20am 20 31 mph 1010.3mb - 47f
8:10am 16 27 mph 1011.2mb - 47f
8:00am 16 22 mph 1011.4mb 52f 48f
7:50am 18 25 mph 1011.3mb - 47f
7:40am 13 20 mph 1011.8mb - 47f
7:30am 16 25 mph 1011.3mb - 47f
7:20am 16 29 mph 1011.1mb - 47f
7:10am 18 27 mph 1011mb - 47f
7:00am 16 25 mph 1011.6mb 52f 47f
6:50am 16 27 mph 1011.4mb - 47f
6:40am 18 25 mph 1011.5mb - 46f
6:30am 16 25 mph 1011.9mb - 46f
6:20am 16 25 mph 1012.3mb - 46f
6:10am 16 29 mph 1012.5mb - 46f
6:00am 18 25 mph 1012.6mb 52f 46f
5:50am 18 25 mph 1012.4mb - 46f
5:40am 16 27 mph 1012.9mb - 46f
5:30am 18 31 mph 1013mb - 46f
5:20am 20 31 mph 1012.9mb - 46f
5:10am 20 27 mph 1013.2mb - 46f
5:00am 18 27 mph 1013.7mb 53f 46f
4:50am 13 25 mph 1014mb - 46f
4:40am 18 27 mph 1014.1mb - 46f
4:30am 18 27 mph 1014.3mb - 46f
4:20am 18 27 mph 1014.3mb - 47f
4:10am 18 29 mph 1014.5mb - 47f
4:00am 16 25 mph 1014.7mb 53f 48f
3:50am 13 25 mph 1014.8mb - 48f
3:40am 16 22 mph 1014.9mb - 49f
3:30am 16 29 mph 1014.6mb - 49f
3:20am 13 18 mph 1014.8mb - 50f
3:10am 13 20 mph 1014.6mb - 50f
3:00am 13 22 mph 1014.5mb 52f 49f
2:50am 13 20 mph 1014.4mb - 50f
2:40am 11 18 mph 1014.7mb - 50f
2:30am 11 18 mph 1014.7mb - 50f
2:20am 11 16 mph 1015mb - 50f
2:10am 9 16 mph 1015.1mb - 51f
2:00am 11 16 mph 1015.3mb 52f 51f
1:50am 11 16 mph 1015.5mb - 51f
1:40am 11 18 mph 1015.3mb - 51f
1:30am 13 22 mph 1015.4mb - 51f
1:20am 11 16 mph 1015.6mb - 52f
1:10am 9 18 mph 1015.6mb - 52f
1:00am 9 16 mph 1016mb 52f 52f
12:50am 9 13 mph 1016.5mb - 52f
12:40am 7 11 mph 1017.2mb - 52f
12:30am 9 13 mph 1017.6mb - 52f
12:20am 7 13 mph 1017.6mb - 52f
12:10am 9 13 mph 1017.7mb - 52f
12:00am 7 11 mph 1018mb 52f 52f
Tue 11/25 11:50pm 9 13 mph 1018mb - 52f
11:40pm 11 16 mph 1018.2mb - 52f
11:30pm 9 11 mph 1018.8mb - 52f
11:20pm 7 9 mph 1018.9mb - 52f
11:10pm 7 9 mph 1018.9mb - 52f
11:00pm 4 9 mph 1019mb 52f 52f
10:50pm 7 9 mph 1018.9mb - 52f
10:40pm 4 9 mph 1019.1mb - 52f
10:30pm 7 9 mph 1018.9mb - 52f
10:20pm 7 9 mph 1018.9mb - 52f
10:10pm 7 9 mph 1019.1mb - 53f
10:00pm 7 11 mph 1019.1mb 52f 53f
9:50pm 4 7 mph 1019.3mb - 53f
9:40pm 4 7 mph 1019.3mb - 53f
9:30pm 2 4 mph 1019.5mb - 52f
9:20pm 2 4 mph 1019.6mb - 52f
9:10pm 2 4 mph 1019.5mb - 52f
9:00pm 4 7 mph 1019.1mb 53f 53f
8:50pm 4 7 mph 1018.9mb - 53f
8:40pm 4 7 mph 1018.5mb - 53f
8:30pm 4 7 mph 1018.4mb - 53f
8:20pm 7 13 mph 1018.1mb - 53f
8:10pm 4 11 mph 1018.1mb - 53f
8:00pm 4 9 mph 1017.7mb 52f 53f
7:50pm 7 9 mph 1017.5mb - 53f
7:40pm 7 11 mph 1017.7mb - 53f
7:30pm 7 11 mph 1018.1mb - 54f
7:20pm 4 7 mph 1018.1mb - 54f
7:10pm 4 7 mph 1018.1mb - 54f
7:00pm 4 7 mph 1018.1mb 53f 54f
6:50pm 4 9 mph 1018mb - 54f
6:40pm 4 9 mph 1018mb - 53f
6:30pm 4 9 mph 1018mb - 53f
6:20pm 4 9 mph 1018.2mb - 53f
6:10pm 4 7 mph 1018.2mb - 54f
6:00pm 4 7 mph 1018.1mb 53f 54f
5:50pm 4 9 mph 1018.1mb - 54f
5:40pm 7 11 mph 1017.4mb - 54f
5:30pm 7 11 mph 1017.1mb - 54f
5:20pm 7 9 mph 1017.5mb - 54f
5:10pm 7 9 mph 1017.9mb - 54f
5:00pm 7 9 mph 1017.9mb 52f 54f
4:50pm 7 11 mph 1018.1mb - 53f
4:40pm 9 13 mph 1017.6mb - 53f
4:30pm 9 13 mph 1017.1mb - 53f
4:20pm 9 16 mph 1017mb - 53f
4:10pm 9 11 mph 1016.9mb - 53f
4:00pm 7 11 mph 1016.7mb 52f 53f
3:50pm 9 11 mph 1016.9mb - 53f
3:40pm 9 13 mph 1016.4mb - 53f
3:30pm 11 18 mph 1016.1mb - 53f
3:20pm 9 16 mph 1016.4mb - 53f
3:10pm 9 13 mph 1016.6mb - 53f
3:00pm 9 13 mph 1016mb 52f 53f
2:50pm 9 13 mph 1015.4mb - 53f
2:40pm 9 16 mph 1015.3mb - 53f
2:30pm 9 13 mph 1015.5mb - 53f
2:20pm 9 13 mph 1015.2mb - 53f
2:10pm 9 16 mph 1015.3mb - 53f
2:00pm 11 16 mph 1015.4mb 52f 53f
1:50pm 11 16 mph 1015.2mb - 53f
1:40pm 11 13 mph 1015.3mb - 54f
1:30pm 11 18 mph 1015.6mb - 56f
1:20pm 7 20 mph 1015.4mb - 60f
1:10pm 2 7 mph 1015.1mb - 61f
1:00pm 4 7 mph 1015.1mb 52f 61f
12:50pm 4 7 mph 1015.3mb - 61f
12:40pm 4 9 mph 1015.4mb - 61f
12:30pm 4 11 mph 1015.6mb - 61f
12:20pm 7 11 mph 1015.8mb - 61f
12:10pm 4 11 mph 1015.7mb - 61f
12:00pm 7 11 mph 1015.5mb 52f 61f
11:50am 7 11 mph 1015.7mb - 61f
11:40am 7 11 mph 1015.7mb - 61f
11:30am 7 11 mph 1016mb - 61f
11:20am 7 13 mph 1016.1mb - 61f
11:10am 7 11 mph 1015.9mb - 61f
11:00am 7 9 mph 1016.3mb 53f 61f
10:50am 7 11 mph 1016.4mb - 61f
10:40am 7 9 mph 1016.2mb - 61f
10:30am 7 9 mph 1016.3mb - 61f
10:20am 4 7 mph 1015.8mb - 61f
10:10am 4 9 mph 1015.9mb - 61f
10:00am 7 9 mph 1015.4mb 53f 61f
9:50am 7 9 mph 1015.9mb - 62f
9:40am 7 11 mph 1016mb - 62f
9:30am 9 11 mph 1015.8mb - 62f
9:20am 7 9 mph 1015.4mb - 62f
9:10am 7 9 mph 1015.4mb - 62f
9:00am 7 9 mph 1015.3mb 53f 62f
8:50am 4 9 mph 1015.1mb - 62f
8:40am 4 9 mph 1015.1mb - 62f
8:30am 4 11 mph 1014.5mb - 62f
8:20am 4 9 mph 1014.4mb - 62f
8:10am 4 9 mph 1014.6mb - 62f
8:00am 4 7 mph 1014.8mb 53f 62f
7:50am 7 11 mph 1014.5mb - 62f
7:40am 7 9 mph 1014.6mb - 62f
7:30am 7 9 mph 1014.7mb - 62f
7:20am 4 7 mph 1014.4mb - 62f
7:10am 2 4 mph 1014.2mb - 62f
7:00am 2 4 mph 1014.2mb 53f 62f
6:50am 2 4 mph 1013.7mb - 63f
6:40am 2 4 mph 1013.5mb - 63f
6:30am 2 4 mph 1013.4mb - 63f
6:20am 2 4 mph 1013.3mb - 63f
6:10am 4
mph
1013.1mb - 63f
6:00am 4
mph
1012.9mb 53f 63f
5:50am 2 4 mph 1012.5mb - 63f
5:40am 4 9 mph 1012.8mb - 63f
5:30am 4 7 mph 1013mb - 64f
5:20am 4 7 mph 1012.7mb - 64f
5:10am 7 9 mph 1013mb - 64f
5:00am 4 9 mph 1012.9mb 52f 64f
4:50am 4 7 mph 1013mb - 64f
4:40am 7 11 mph 1012.8mb - 64f
4:30am 7 9 mph 1012.5mb - 64f
4:20am 7 9 mph 1012.2mb - 64f
4:10am 7 9 mph 1012.1mb - 64f
4:00am 7 11 mph 1012.5mb 53f 64f
3:50am 7 13 mph 1012.7mb - 65f